Austinville, Virginia
Current Conditions -  °F | °C
As of 2:35 PM on Friday 28 Nov 2014 (Local Time) from KHLX Reporting Station
Clear Clear  
Wind Chill: 22°   Ceiling: Unl
Heat Index: 29°   Visibility: 10mi
Dew Point: 17°   Wind: 8mph
Humidity: 60%   Direction: 310°NW
Pressure: 30.21"   Gusts: NA
Location:  36.85°N, 80.91°W
Report Text: KHLX 281935Z AUTO 31007KT 10SM CLR M01/M08 A3021 RMK AO2 T10141083
Loading
Personal Weather Stations






























Interactive Weather Map New forecast layout! Learn more

10-Day Weather Forecast

Advertisements
Track Severe Weather on mobile